Latest Coastal Weather Observations for Cape Grim

IDT60701

Issued at 6:22 pm EST Saturday 30 May 2020 (issued every 10 minutes, with the page automatically refreshed every 10 minutes)

About coastal observations | Map of coastal stations | Coastal observations for TAS | Marine services | Other Formats
Station Details ID: 091331 Name: CAPE GRIM Lat: -40.68 Lon: 144.69 Height: 86.0 m
Data from the previous 72 hours. | See also: Recent months at Cape Grim
Date/Time
EST
Wind Sea
Height
m
Swell Vis
km
Cloud Weather Temp
°C
Press
hPa
Rain since
9am
mm
Dir  Spd
kts
Gust
kts
Height
m
Period
s
Dir
30/06:13pm NNE 24 34 - - - - - - - 12.9 1009.6 0.0
30/06:00pm NNE 28 35 - - - - - Mostly clear - 12.9 1009.3 0.0
30/05:36pm N 26 36 - - - - - - - 13.0 1009.7 0.0
30/05:30pm NNE 27 36 - - - - - - - 13.0 1009.9 0.0
30/05:00pm NNE 27 33 - - - - - - - 13.0 1009.7 0.0
30/04:30pm NNE 26 32 - - - - - - - 12.9 1010.3 0.0
30/04:00pm NNE 26 33 - - - - - - - 13.1 1011.1 0.0
30/03:30pm N 26 32 - - - - - - - 13.4 1011.4 0.0
30/03:00pm N 27 32 - - - - - - - 13.4 1011.9 0.0
30/02:30pm N 28 35 - - - - - - - 13.7 1012.3 0.0
30/02:00pm N 28 33 - - - - - - - 13.8 1012.8 0.0
30/01:30pm N 27 34 - - - - - - - 14.1 1013.4 0.0
30/01:00pm N 28 33 - - - - - - - 14.0 1014.1 0.0
30/12:30pm N 26 32 - - - - - - - 14.2 1014.9 0.0
30/12:00pm N 26 33 - - - - - - - 14.2 1015.8 0.0
30/11:30am N 26 33 - - - - - - - 14.1 1016.2 0.0
30/11:00am N 25 33 - - - - - - - 14.0 1017.1 0.0
30/10:30am N 26 34 - - - - - - - 14.0 1017.5 0.0
30/10:00am N 25 32 - - - - - - - 13.7 1017.6 0.0
30/09:30am N 24 31 - - - - - - - 13.5 1018.0 0.0
30/09:00am N 24 31 - - - - - - - 13.3 1018.3 0.0
30/08:30am N 24 29 - - - - - - - 13.1 1018.4 0.0
30/08:00am N 23 29 - - - - - - - 12.8 1018.6 0.0
30/07:30am N 22 29 - - - - - - - 12.7 1018.6 0.0
30/07:00am N 22 28 - - - - - - - 12.6 1018.8 0.0
30/06:30am N 22 27 - - - - - - - 12.7 1018.7 0.0
30/06:00am N 22 28 - - - - - - - 12.6 1018.8 0.0
30/05:30am N 19 25 - - - - - - - 12.7 1019.0 0.0
30/05:00am N 17 21 - - - - - - - 12.5 1019.1 0.0
30/04:30am N 18 23 - - - - - Partly cloudy - 12.6 1019.2 0.0
30/04:00am N 19 23 - - - - - Partly cloudy - 12.8 1019.3 0.0
30/03:30am N 20 27 - - - - - Partly cloudy - 12.7 1019.4 0.0
30/03:00am N 18 23 - - - - - Mostly cloudy - 12.8 1019.5 0.0
30/02:30am N 17 22 - - - - - Partly cloudy - 12.9 1019.9 0.0
30/02:00am N 15 19 - - - - - Partly cloudy - 12.9 1020.0 0.0
30/01:30am N 15 19 - - - - - Cloudy - 13.0 1020.1 0.0
30/01:00am NNE 14 18 - - - - - Cloudy - 12.5 1020.6 0.0
30/12:30am N 14 16 - - - - - Partly cloudy - 12.7 1020.9 0.0
30/12:00am N 14 18 - - - - - Cloudy - 12.9 1021.3 0.0
 
Date/Time
EST
Wind Sea
Height
m
Swell Vis
km
Cloud Weather Temp
°C
Press
hPa
Rain since
9am
mm
Dir  Spd
kts
Gust
kts
Height
m
Period
s
Dir
29/11:30pm N 14 17 - - - - - Partly cloudy - 12.9 1021.6 0.0
29/11:00pm N 15 19 - - - - - Partly cloudy - 12.8 1021.7 0.0
29/10:30pm N 15 19 - - - - - Cloudy - 12.8 1021.8 0.0
29/10:00pm N 13 17 - - - - - Partly cloudy - 12.8 1022.0 0.0
29/09:30pm N 13 17 - - - - - - - 12.8 1022.2 0.0
29/09:00pm NNW 15 17 - - - - - - - 12.8 1022.3 0.0
29/08:30pm NNW 14 17 - - - - - - - 12.6 1022.3 0.0
29/08:00pm NNW 19 23 - - - - - Partly cloudy - 12.8 1022.2 0.0
29/07:30pm NNW 16 20 - - - - - - - 12.7 1022.0 0.0
29/07:00pm NNW 15 19 - - - - - Partly cloudy - 12.6 1021.9 0.0
29/06:30pm N 14 18 - - - - - Cloudy - 12.9 1022.1 0.0
29/06:00pm NNW 14 18 - - - - - Cloudy - 12.8 1022.1 0.0
29/05:30pm NNW 14 19 - - - - - Cloudy - 12.9 1022.2 0.0
29/05:00pm NNW 13 18 - - - - - - - 12.8 1022.1 0.0
29/04:30pm NNW 12 16 - - - - - - - 13.2 1022.0 0.0
29/04:00pm NNW 16 19 - - - - - - - 13.3 1022.1 0.0
29/03:30pm NW 13 19 - - - - - - - 13.5 1022.3 0.0
29/03:00pm NNW 13 19 - - - - - - - 14.1 1022.1 0.0
29/02:30pm NW 13 17 - - - - - - - 14.1 1022.2 0.0
29/02:00pm NW 13 17 - - - - - Partly cloudy - 14.5 1022.3 0.0
29/01:30pm NW 12 17 - - - - - - - 14.6 1022.4 0.0
29/01:00pm NW 17 21 - - - - - Partly cloudy - 14.5 1022.6 0.0
29/12:30pm NW 15 20 - - - - - - - 14.3 1023.0 0.0
29/12:00pm NNW 15 19 - - - - - Mostly clear - 14.1 1023.2 0.0
29/11:30am NNW 15 19 - - - - - Cloudy - 13.8 1023.7 0.0
29/11:00am NNW 17 20 - - - - - Partly cloudy - 13.9 1023.8 0.0
29/10:30am NNW 16 19 - - - - - - - 13.8 1023.7 0.0
29/10:00am NNW 17 23 - - - - - Partly cloudy - 13.5 1023.6 0.0
29/09:30am NNW 18 24 - - - - - - - 13.2 1023.3 0.0
29/09:00am NNW 14 17 - - - - - - - 13.2 1023.2 0.2
29/08:30am NNW 13 16 - - - - - - - 12.9 1022.9 0.2
29/08:00am NNW 13 17 - - - - - Partly cloudy - 12.6 1022.8 0.2
29/07:30am NNW 15 18 - - - - - Partly cloudy - 12.5 1022.7 0.2
29/07:00am NNW 14 16 - - - - - Partly cloudy - 12.7 1022.7 0.2
29/06:51am NNW 14 17 - - - - - Partly cloudy - 12.7 1022.6 0.2
29/06:39am NNW 14 17 - - - - - Partly cloudy - 12.7 1022.4 0.2
29/06:30am NNW 14 18 - - - - - Partly cloudy - 12.8 1022.3 0.2
29/06:00am NNW 12 15 - - - - - Cloudy - 12.8 1022.0 0.2
29/05:30am NNW 12 16 - - - - - Partly cloudy - 12.9 1021.9 0.2
29/05:00am NW 14 19 - - - - - Partly cloudy - 12.7 1021.7 0.2
29/04:30am NNW 15 18 - - - - - Partly cloudy - 12.7 1021.5 0.2
29/04:00am NNW 14 19 - - - - - Partly cloudy - 12.5 1021.4 0.2
29/03:30am NNW 13 15 - - - - - - - 12.6 1021.2 0.2
29/03:00am NW 15 19 - - - - - - - 12.9 1021.3 0.2
29/02:30am WNW 15 19 - - - - - Partly cloudy - 12.9 1021.1 0.2
29/02:00am NW 15 19 - - - - - - - 13.0 1021.1 0.2
29/01:30am WNW 14 17 - - - - - Cloudy - 13.0 1021.1 0.2
29/01:00am NW 15 20 - - - - - Cloudy - 13.1 1021.0 0.2
29/12:30am WNW 14 19 - - - - - Cloudy - 13.2 1021.2 0.2
29/12:00am WNW 15 20 - - - - - Cloudy - 13.3 1021.2 0.2
 
Date/Time
EST
Wind Sea
Height
m
Swell Vis
km
Cloud Weather Temp
°C
Press
hPa
Rain since
9am
mm
Dir  Spd
kts
Gust
kts
Height
m
Period
s
Dir
28/11:30pm WNW 17 21 - - - - - Partly cloudy - 13.3 1021.3 0.2
28/11:00pm WNW 16 21 - - - - - - - 13.0 1021.2 0.2
28/10:30pm WNW 14 17 - - - - - Partly cloudy - 13.0 1021.1 0.2
28/10:00pm WNW 16 20 - - - - - Partly cloudy - 13.2 1021.1 0.2
28/09:30pm WNW 17 22 - - - - - Partly cloudy - 13.2 1021.1 0.2
28/09:00pm WNW 16 22 - - - - - Cloudy - 13.3 1021.1 0.2
28/08:30pm WNW 16 20 - - - - - Partly cloudy - 13.2 1020.8 0.2
28/08:00pm WNW 15 19 - - - - - Partly cloudy - 13.0 1020.7 0.2
28/07:30pm WNW 14 19 - - - - - Partly cloudy - 12.9 1020.5 0.2
28/07:00pm WNW 14 18 - - - - - - - 12.6 1020.2 0.2
28/06:30pm WNW 15 18 - - - - - - - 12.6 1019.9 0.2
28/06:00pm WNW 15 19 - - - - - - - 12.4 1019.7 0.2
28/05:30pm WNW 13 17 - - - - - - - 12.2 1019.4 0.2
28/05:00pm WNW 14 16 - - - - - - - 12.3 1019.1 0.2
28/04:30pm W 13 17 - - - - - - - 12.3 1019.1 0.2
28/04:00pm W 15 19 - - - - - Partly cloudy - 12.8 1018.9 0.2
28/03:30pm W 16 21 - - - - - Partly cloudy - 12.6 1018.7 0.2
28/03:23pm W 17 21 - - - - - Partly cloudy - 12.2 1018.6 0.2
28/03:12pm W 14 21 - - - - - Partly cloudy - 12.5 1018.6 0.2
28/03:00pm WNW 16 22 - - - - - Cloudy Recent precip. 12.6 1018.5 0.2
28/02:30pm W 13 18 - - - - - Partly cloudy - 11.9 1018.4 0.2
28/02:29pm W 13 18 - - - - - Partly cloudy - 12.0 1018.4 0.2
28/02:15pm W 17 30 - - - - - Partly cloudy - 11.5 1018.4 0.2
28/02:09pm W 15 30 - - - - - Partly cloudy - 12.0 1018.4 0.0
28/02:00pm W 16 25 - - - - - Partly cloudy - 12.5 1018.4 0.0
28/01:30pm W 13 21 - - - - - Partly cloudy - 12.1 1018.5 0.0
28/01:00pm W 12 18 - - - - - Partly cloudy - 13.1 1018.5 0.0
28/12:30pm W 12 16 - - - - - Partly cloudy - 13.1 1018.7 0.0
28/12:00pm W 12 17 - - - - - Mostly clear - 12.6 1018.7 0.0
28/11:30am W 11 16 - - - - - Partly cloudy - 12.5 1018.9 0.0
28/11:00am W 13 20 - - - - - Partly cloudy - 12.1 1019.0 0.0
28/10:56am W 12 17 - - - - - Partly cloudy - 11.8 1019.0 0.0
28/10:45am W 14 23 - - - - - Partly cloudy - 11.4 1019.1 0.0
28/10:33am W 12 17 - - - - - Partly cloudy - 11.9 1019.0 0.0
28/10:30am W 12 19 - - - - - Partly cloudy - 11.9 1019.0 0.0
28/10:23am W 17 24 - - - - - Partly cloudy - 11.7 1019.0 0.0
28/10:00am W 14 19 - - - - - Partly cloudy - 12.5 1018.8 0.0
28/09:30am W 13 18 - - - - - Partly cloudy - 12.4 1018.5 0.0
28/09:00am W 14 20 - - - - - Partly cloudy - 11.9 1018.3 4.4
28/08:30am W 14 18 - - - - - Partly cloudy - 11.9 1018.1 4.4
28/08:00am W 16 20 - - - - - Partly cloudy - 11.7 1018.0 4.4
28/07:30am W 11 14 - - - - - Partly cloudy - 11.5 1017.7 4.4
28/07:00am W 10 13 - - - - - Partly cloudy - 11.7 1017.5 4.2
28/06:30am W 11 15 - - - - - Partly cloudy - 11.9 1017.2 4.2
28/06:00am W 13 18 - - - - - Cloudy - 12.1 1017.1 4.2
28/05:30am WNW 12 15 - - - - - Partly cloudy - 11.8 1016.9 4.2
28/05:00am W 13 17 - - - - - Partly cloudy - 11.9 1016.7 4.2
28/04:30am W 12 15 - - - - - Partly cloudy - 11.7 1016.6 4.2
28/04:00am W 12 15 - - - - - Partly cloudy - 11.9 1016.4 4.2
28/03:30am WNW 13 16 - - - - - Partly cloudy - 11.7 1016.3 4.2
28/03:05am WNW 11 13 - - - - - Partly cloudy - 12.4 1016.4 4.2
28/03:00am WNW 11 14 - - - - - Cloudy - 12.4 1016.4 4.2
28/02:37am WNW 13 16 - - - - - Partly cloudy - 12.2 1016.3 4.2
28/02:30am WNW 11 15 - - - - - Partly cloudy - 12.2 1016.3 4.2
28/02:00am NW 9 12 - - - - - Partly cloudy - 11.9 1016.2 4.2
28/01:45am WNW 9 11 - - - - - Partly cloudy - 11.8 1016.1 4.2
28/01:35am NW 9 11 - - - - - Partly cloudy - 12.1 1016.1 4.2
28/01:30am NW 8 11 - - - - - Partly cloudy - 12.4 1016.2 4.2
28/01:00am NW 11 14 - - - - - Partly cloudy - 12.2 1016.3 3.8
28/12:30am NW 11 14 - - - - - Partly cloudy - 12.5 1016.4 3.6
28/12:00am NW 16 21 - - - - - Cloudy Rain 12.4 1016.5 3.2
 
Date/Time
EST
Wind Sea
Height
m
Swell Vis
km
Cloud Weather Temp
°C
Press
hPa
Rain since
9am
mm
Dir  Spd
kts
Gust
kts
Height
m
Period
s
Dir
27/11:30pm NNW 15 22 - - - - - Partly cloudy - 12.7 1016.5 1.4
27/11:00pm NW 13 17 - - - - - Partly cloudy - 12.8 1016.5 0.8
27/10:30pm NW 19 26 - - - - - Partly cloudy - 12.7 1016.6 0.8
27/10:02pm NNW 18 28 - - - - - Partly cloudy - 13.1 1016.5 0.4
27/10:00pm NNW 19 28 - - - - - Partly cloudy - 13.0 1016.6 0.4
27/09:52pm N 17 27 - - - - - Cloudy - 13.2 1016.7 0.2
27/09:30pm N 18 22 - - - - - Partly cloudy - 13.7 1016.4 0.0
27/09:00pm N 18 23 - - - - - Cloudy - 13.5 1016.4 0.0
27/08:30pm N 17 22 - - - - - Cloudy - 13.2 1016.4 0.0
27/08:00pm N 17 21 - - - - - Cloudy - 13.2 1016.4 0.0
27/07:30pm N 17 21 - - - - - Partly cloudy - 13.1 1016.4 0.0
27/07:00pm N 16 20 - - - - - Cloudy - 13.1 1016.4 0.0
27/06:30pm N 15 18 - - - - - Partly cloudy - 13.1 1016.4 0.0

Other formats

Comma delimited format used in spreadsheet applications
http://www.bom.gov.au/fwo/IDT60701/IDT60701.95954.axf

JavaScript Object Notation format (JSON) in row-major order
http://www.bom.gov.au/fwo/IDT60701/IDT60701.95954.json

Data quality

Most of these data are generated automatically and are frequently updated. Quality checks on data are not normally performed. It is possible for incorrect values to appear. Refer to information at About Latest Weather Observations and please check the disclaimer before using these data.